Time;durP1;ratioP1;P1;durP2;ratioP2;P2;SDS_P1;SDS_P2;PMS_P1;PMS_P2;Temp;Humidity;BMP_temperature;BMP_pressure;BME280_temperature;BME280_humidity;BME280_pressure;Samples;Min_cycle;Max_cycle;Signal;HPM_P1;HPM_P2
2022/06/23 00:00:26;;;;;;;21.47;8.80;;;18.40;4.30;;;;;;5073568;28;20479;-83
2022/06/23 00:02:54;;;;;;;18.70;8.20;;;18.30;7.20;;;;;;5072450;28;20444;-84
2022/06/23 00:05:22;;;;;;;24.60;8.40;;;18.30;8.40;;;;;;5072361;28;20446;-84
2022/06/23 00:07:55;;;;;;;19.77;8.33;;;18.30;7.30;;;;;;5072290;28;20447;-84
2022/06/23 00:10:26;;;;;;;16.93;8.37;;;18.20;7.20;;;;;;5073877;28;20528;-80
2022/06/23 00:12:53;;;;;;;16.80;8.87;;;18.10;8.00;;;;;;5073125;28;20448;-79
2022/06/23 00:15:21;;;;;;;21.80;9.40;;;18.10;11.20;;;;;;5073385;28;20445;-79
2022/06/23 00:18:22;;;;;;;13.50;8.93;;;18.00;14.60;;;;;;5072932;28;20414;-79
2022/06/23 00:20:55;;;;;;;29.07;7.90;;;18.00;13.80;;;;;;5043609;28;20981;-79
2022/06/23 00:23:28;;;;;;;16.80;8.50;;;18.00;13.70;;;;;;5033460;28;20597;-79
2022/06/23 00:26:19;;;;;;;14.60;8.07;;;17.90;15.80;;;;;;5031420;28;20427;-84
2022/06/23 00:29:03;;;;;;;21.93;8.47;;;17.90;16.10;;;;;;5042006;28;20446;-84
2022/06/23 00:31:29;;;;;;;32.43;8.70;;;17.80;21.00;;;;;;5035346;28;20953;-84
2022/06/23 00:33:56;;;;;;;15.87;8.50;;;17.80;23.70;;;;;;5018054;28;20441;-84
2022/06/23 00:36:27;;;;;;;20.63;9.10;;;17.70;28.20;;;;;;5035927;28;20201;-84
2022/06/23 00:38:53;;;;;;;15.83;9.00;;;17.70;28.90;;;;;;5032531;28;20455;-84
2022/06/23 00:41:28;;;;;;;20.50;9.20;;;17.70;31.20;;;;;;5036988;28;20822;-84
2022/06/23 00:43:57;;;;;;;18.03;9.40;;;17.70;36.60;;;;;;5033543;28;20412;-84
2022/06/23 00:46:26;;;;;;;21.27;9.87;;;17.60;45.30;;;;;;5032356;28;20555;-84
2022/06/23 00:49:00;;;;;;;23.17;10.60;;;17.60;48.70;;;;;;5037651;28;20425;-84
2022/06/23 00:51:41;;;;;;;21.90;10.23;;;17.50;48.60;;;;;;5034639;28;20574;-83
2022/06/23 00:54:41;;;;;;;29.63;10.80;;;17.60;48.70;;;;;;5040678;28;20414;-84
2022/06/23 00:57:27;;;;;;;26.17;10.37;;;17.50;48.60;;;;;;5039042;28;20803;-80
2022/06/23 01:00:05;;;;;;;16.63;9.53;;;17.50;50.90;;;;;;5069828;28;20482;-79
2022/06/23 01:02:58;;;;;;;24.67;10.43;;;17.50;48.60;;;;;;5072351;28;20522;-80
2022/06/23 01:05:33;;;;;;;33.27;10.20;;;17.50;48.60;;;;;;5061091;28;20394;-80
2022/06/23 01:08:08;;;;;;;20.30;9.67;;;17.40;48.50;;;;;;5072123;28;20948;-79
2022/06/23 01:11:10;;;;;;;17.70;10.30;;;17.40;48.50;;;;;;5072604;28;20424;-79
2022/06/23 01:13:57;;;;;;;18.83;10.50;;;17.40;48.50;;;;;;5072338;28;20404;-79
2022/06/23 01:16:29;;;;;;;19.63;9.83;;;17.40;48.50;;;;;;5072240;28;20437;-80
2022/06/23 01:19:29;;;;;;;23.00;11.50;;;17.30;48.50;;;;;;5072589;28;20475;-79
2022/06/23 01:22:00;;;;;;;20.67;11.00;;;17.20;52.30;;;;;;5072129;28;20441;-79
2022/06/23 01:24:36;;;;;;;19.63;11.80;;;17.30;59.30;;;;;;5072306;28;20514;-79
2022/06/23 01:27:24;;;;;;;22.63;11.50;;;17.30;60.80;;;;;;5071769;28;20461;-84
2022/06/23 01:29:57;;;;;;;26.47;12.33;;;17.30;62.70;;;;;;5070903;28;20426;-84
2022/06/23 01:32:35;;;;;;;27.90;12.80;;;17.30;69.30;;;;;;5072659;28;20837;-84
2022/06/23 01:35:07;;;;;;;22.10;11.50;;;17.30;69.00;;;;;;5071608;28;20808;-84
2022/06/23 01:37:41;;;;;;;24.10;11.80;;;17.20;66.60;;;;;;5071614;28;20408;-84
2022/06/23 01:40:19;;;;;;;19.00;11.97;;;17.20;67.40;;;;;;5065741;28;20413;-84
2022/06/23 01:43:26;;;;;;;20.37;11.77;;;17.20;68.10;;;;;;5071535;28;20457;-83
2022/06/23 01:46:02;;;;;;;31.30;12.03;;;17.20;70.50;;;;;;5016806;28;20428;-84
2022/06/23 01:48:53;;;;;;;20.60;11.47;;;17.10;68.50;;;;;;5011710;28;20445;-84
2022/06/23 01:51:21;;;;;;;21.37;11.37;;;17.00;75.00;;;;;;5016036;28;20443;-83
2022/06/23 01:53:48;;;;;;;22.37;12.10;;;17.00;82.80;;;;;;5011630;28;21011;-84
2022/06/23 01:56:17;;;;;;;17.83;11.20;;;17.00;80.60;;;;;;4994725;28;20426;-84
2022/06/23 01:59:10;;;;;;;22.53;12.40;;;17.00;80.10;;;;;;5015567;28;20956;-84
2022/06/23 02:01:45;;;;;;;22.90;11.33;;;17.00;78.50;;;;;;4994209;28;20542;-84
2022/06/23 02:04:33;;;;;;;25.13;11.70;;;17.00;76.30;;;;;;5020887;28;20896;-84
2022/06/23 02:07:13;;;;;;;24.30;12.43;;;16.90;76.90;;;;;;5010865;28;20440;-84
2022/06/23 02:09:47;;;;;;;21.43;11.60;;;16.90;79.50;;;;;;4997326;28;20398;-84
2022/06/23 02:12:29;;;;;;;25.33;12.53;;;16.90;79.20;;;;;;5008222;28;20416;-80
2022/06/23 02:15:03;;;;;;;24.50;13.00;;;16.90;75.10;;;;;;5014004;28;20432;-80
2022/06/23 02:17:55;;;;;;;28.00;14.50;;;16.80;78.10;;;;;;5015812;28;20439;-80
2022/06/23 02:20:36;;;;;;;22.30;13.47;;;16.80;83.40;;;;;;4991661;28;20513;-79
2022/06/23 02:23:21;;;;;;;20.53;12.23;;;16.80;79.40;;;;;;5047298;28;20451;-79
2022/06/23 02:26:08;;;;;;;19.83;11.60;;;16.70;75.00;;;;;;5075095;28;20419;-79
2022/06/23 02:29:01;;;;;;;22.57;11.97;;;16.70;76.20;;;;;;5067136;28;20429;-79
2022/06/23 02:31:41;;;;;;;18.10;11.70;;;16.60;78.60;;;;;;5053064;28;20762;-80
2022/06/23 02:34:29;;;;;;;22.77;12.00;;;16.60;90.30;;;;;;5036176;28;20397;-79
2022/06/23 02:37:05;;;;;;;22.77;11.53;;;16.60;89.30;;;;;;5066622;28;20823;-80
2022/06/23 02:39:47;;;;;;;23.23;11.60;;;16.60;85.70;;;;;;5043385;28;20414;-79
2022/06/23 02:42:29;;;;;;;20.93;11.13;;;16.60;82.30;;;;;;5046745;28;20437;-80
2022/06/23 02:45:18;;;;;;;18.13;11.20;;;16.50;83.60;;;;;;5037578;28;20435;-80
2022/06/23 02:48:07;;;;;;;22.43;11.43;;;16.50;81.80;;;;;;5037225;28;20448;-80
2022/06/23 02:50:51;;;;;;;19.33;11.70;;;16.50;78.10;;;;;;5049607;28;21091;-79
2022/06/23 02:53:49;;;;;;;17.83;10.93;;;16.50;78.80;;;;;;5032764;28;20423;-79
2022/06/23 02:56:35;;;;;;;24.90;11.70;;;16.40;81.20;;;;;;5059165;28;20599;-79
2022/06/23 02:59:20;;;;;;;23.53;12.03;;;16.30;86.30;;;;;;5037706;28;20434;-84
2022/06/23 03:01:55;;;;;;;20.87;10.97;;;16.40;84.10;;;;;;5039814;28;20482;-84
2022/06/23 03:04:30;;;;;;;27.20;11.60;;;16.20;83.60;;;;;;5043376;28;20433;-84
2022/06/23 03:07:15;;;;;;;22.60;12.00;;;16.20;90.40;;;;;;5055135;28;20449;-84
2022/06/23 03:09:45;;;;;;;19.23;10.77;;;16.20;85.50;;;;;;5074808;28;20404;-84
2022/06/23 03:12:21;;;;;;;24.90;11.87;;;16.30;78.30;;;;;;5074892;28;20544;-80
2022/06/23 03:14:55;;;;;;;36.67;13.07;;;16.30;77.80;;;;;;5073968;28;20436;-79
2022/06/23 03:17:32;;;;;;;23.10;11.30;;;16.30;77.70;;;;;;5074404;28;20417;-80
2022/06/23 03:20:10;;;;;;;20.70;12.00;;;16.20;79.00;;;;;;5073584;28;20421;-80
2022/06/23 03:22:51;;;;;;;22.20;11.70;;;16.20;75.50;;;;;;5070778;28;20937;-80
2022/06/23 03:25:37;;;;;;;19.90;11.10;;;16.20;73.00;;;;;;5074299;28;20396;-79
2022/06/23 03:28:12;;;;;;;21.47;11.63;;;16.20;74.10;;;;;;5074070;28;20392;-80
2022/06/23 03:30:52;;;;;;;19.97;10.77;;;16.20;74.80;;;;;;5073494;28;20399;-79
2022/06/23 03:33:22;;;;;;;20.33;11.50;;;16.20;75.40;;;;;;5072727;28;20423;-80
2022/06/23 03:35:57;;;;;;;19.33;11.83;;;16.20;77.80;;;;;;5073796;28;20507;-79
2022/06/23 03:41:48;;;;;;;23.70;11.30;;;16.20;85.20;;;;;;5073617;28;20780;-79
2022/06/23 03:44:28;;;;;;;17.63;11.97;;;16.10;91.30;;;;;;5057048;28;20941;-84
2022/06/23 03:47:01;;;;;;;23.00;11.23;;;16.20;87.90;;;;;;5073037;28;20490;-84
2022/06/23 03:49:43;;;;;;;19.30;12.20;;;16.20;82.70;;;;;;5073807;28;20973;-84
2022/06/23 03:52:36;;;;;;;16.33;11.00;;;16.30;83.50;;;;;;5072405;28;20452;-84
2022/06/23 03:55:26;;;;;;;21.90;11.50;;;16.30;82.00;;;;;;5072865;28;20421;-84
2022/06/23 03:57:56;;;;;;;17.20;10.70;;;16.30;79.40;;;;;;5073658;28;20440;-80
2022/06/23 04:00:36;;;;;;;16.23;11.30;;;16.40;76.60;;;;;;5072025;28;20444;-79
2022/06/23 04:03:12;;;;;;;22.83;11.87;;;16.40;72.00;;;;;;5071935;28;20980;-79
2022/06/23 04:06:19;;;;;;;27.20;10.80;;;16.40;69.70;;;;;;5072944;28;20400;-79
2022/06/23 04:08:58;;;;;;;17.97;10.80;;;16.50;70.20;;;;;;5015683;28;20413;-79
2022/06/23 04:11:43;;;;;;;22.10;11.67;;;16.50;69.40;;;;;;5009254;28;20766;-79
2022/06/23 04:14:27;;;;;;;24.43;10.90;;;16.60;69.70;;;;;;5003149;28;20436;-82
2022/06/23 04:17:05;;;;;;;20.50;11.07;;;16.60;70.20;;;;;;5015655;28;20431;-84
2022/06/23 04:19:33;;;;;;;22.57;11.20;;;16.60;70.30;;;;;;4990899;28;20413;-84
2022/06/23 04:22:26;;;;;;;17.20;10.33;;;16.60;73.30;;;;;;5005915;28;20439;-84
2022/06/23 04:24:55;;;;;;;19.70;11.30;;;16.70;71.50;;;;;;4991561;28;20397;-84
2022/06/23 04:27:37;;;;;;;24.77;10.93;;;16.80;71.00;;;;;;5010153;28;20812;-84
2022/06/23 04:30:03;;;;;;;20.37;11.07;;;16.80;67.00;;;;;;4994713;28;20516;-84
2022/06/23 04:32:33;;;;;;;35.30;12.57;;;16.80;67.10;;;;;;5011134;28;20435;-84
2022/06/23 04:35:05;;;;;;;19.13;11.50;;;16.90;71.60;;;;;;5013085;28;20486;-84
2022/06/23 04:37:34;;;;;;;18.17;11.60;;;16.90;74.30;;;;;;5005136;28;20451;-84
2022/06/23 04:40:38;;;;;;;18.70;11.47;;;17.00;70.60;;;;;;5011104;28;20889;-84
2022/06/23 04:43:14;;;;;;;19.20;10.50;;;17.10;67.20;;;;;;4984392;28;20479;-80
2022/06/23 04:45:54;;;;;;;16.40;10.63;;;17.20;62.20;;;;;;5009667;28;20493;-79
2022/06/23 04:48:38;;;;;;;14.37;10.80;;;17.30;59.00;;;;;;5035162;28;20424;-75
2022/06/23 04:51:12;;;;;;;22.77;10.63;;;17.30;56.70;;;;;;5023854;28;20871;-74
2022/06/23 04:53:46;;;;;;;15.17;9.93;;;17.40;50.40;;;;;;5030200;28;20414;-75
2022/06/23 04:56:32;;;;;;;12.13;9.00;;;17.50;48.80;;;;;;5030359;28;20409;-75
2022/06/23 04:59:34;;;;;;;22.33;10.60;;;17.60;48.70;;;;;;5030945;28;20421;-88
2022/06/23 05:02:15;;;;;;;19.20;10.10;;;17.80;48.80;;;;;;5031543;28;20969;-89
2022/06/23 05:04:44;;;;;;;18.40;11.13;;;17.90;49.00;;;;;;5031077;28;20445;-89
2022/06/23 05:07:32;;;;;;;17.43;10.67;;;18.00;49.00;;;;;;5030939;28;20441;-89
2022/06/23 05:10:04;;;;;;;22.13;11.40;;;18.10;49.10;;;;;;5010330;28;20413;-90
2022/06/23 05:12:37;;;;;;;25.57;11.53;;;18.20;49.20;;;;;;5013127;28;20455;-89
2022/06/23 05:15:12;;;;;;;19.03;11.47;;;18.30;49.60;;;;;;5028669;28;20445;-81
2022/06/23 05:17:46;;;;;;;14.47;10.80;;;18.40;49.60;;;;;;5051711;28;21005;-81
2022/06/23 05:20:21;;;;;;;23.93;13.53;;;18.50;49.50;;;;;;5072244;28;20796;-81
2022/06/23 05:22:48;;;;;;;19.77;12.33;;;18.60;49.60;;;;;;5071668;28;20449;-83
2022/06/23 05:25:22;;;;;;;19.70;12.50;;;18.70;49.70;;;;;;5072587;28;20419;-75
2022/06/23 05:27:49;;;;;;;24.57;13.10;;;18.80;47.10;;;;;;5072585;28;20814;-74
2022/06/23 05:30:26;;;;;;;22.30;13.30;;;19.00;46.50;;;;;;5071705;28;20447;-74
2022/06/23 05:33:18;;;;;;;18.87;12.30;;;19.10;39.70;;;;;;5066220;28;20473;-77
2022/06/23 05:35:50;;;;;;;16.00;12.00;;;19.20;33.70;;;;;;5068343;28;20519;-77
2022/06/23 05:38:24;;;;;;;26.60;14.77;;;19.40;29.30;;;;;;5063143;28;20421;-76
2022/06/23 05:40:55;;;;;;;20.57;13.53;;;19.50;24.10;;;;;;5071285;28;20428;-75
2022/06/23 05:43:21;;;;;;;25.37;15.03;;;19.70;16.90;;;;;;5071122;28;20457;-75
2022/06/23 05:46:05;;;;;;;27.13;15.77;;;19.80;7.30;;;;;;5074396;28;20433;-75
2022/06/23 05:48:44;;;;;;;24.60;15.20;;;19.90;2.80;;;;;;5076629;28;20739;-76
2022/06/23 05:54:41;;;;;;;31.20;13.23;;;20.20;1.00;;;;;;5076972;28;20404;-75
2022/06/23 05:57:30;;;;;;;21.90;13.57;;;20.30;1.00;;;;;;5076326;28;20425;-75
2022/06/23 06:00:11;;;;;;;21.30;12.50;;;20.40;1.00;;;;;;5076818;28;20429;-75
2022/06/23 06:02:45;;;;;;;34.57;15.13;;;20.60;1.00;;;;;;5071442;28;20548;-75
2022/06/23 06:05:31;;;;;;;24.03;13.17;;;20.70;1.00;;;;;;5067148;28;20448;-75
2022/06/23 06:08:30;;;;;;;19.97;12.60;;;20.80;1.00;;;;;;5065363;28;20413;-75
2022/06/23 06:10:58;;;;;;;21.60;12.47;;;20.90;1.00;;;;;;5060830;28;20429;-75
2022/06/23 06:13:28;;;;;;;18.87;13.00;;;21.00;1.00;;;;;;5058720;28;20462;-76
2022/06/23 06:16:04;;;;;;;16.27;10.70;;;21.10;1.00;;;;;;5060283;28;20440;-76
2022/06/23 06:18:42;;;;;;;31.10;13.17;;;21.20;1.00;;;;;;5072170;28;20422;-76
2022/06/23 06:21:27;;;;;;;16.63;11.10;;;21.30;1.00;;;;;;5068936;28;20438;-76
2022/06/23 06:24:26;;;;;;;15.50;11.47;;;21.40;1.00;;;;;;5068023;28;20947;-76
2022/06/23 06:26:54;;;;;;;18.80;10.63;;;21.50;1.00;;;;;;5014778;28;20879;-76
2022/06/23 06:29:31;;;;;;;25.47;10.83;;;21.70;1.00;;;;;;5011971;28;20449;-75
2022/06/23 06:32:04;;;;;;;19.80;10.33;;;21.80;1.00;;;;;;4994713;28;20440;-76
2022/06/23 06:34:43;;;;;;;18.40;10.83;;;21.90;1.00;;;;;;5020866;28;20460;-82
2022/06/23 06:37:13;;;;;;;16.33;10.43;;;22.00;1.00;;;;;;5015412;28;20474;-84
2022/06/23 06:39:46;;;;;;;16.90;9.07;;;22.20;1.00;;;;;;5012902;28;20423;-75
2022/06/23 06:42:20;;;;;;;18.20;9.73;;;22.30;1.00;;;;;;4996304;28;20826;-75
2022/06/23 06:44:53;;;;;;;21.17;9.93;;;22.50;1.00;;;;;;5015004;28;20430;-72
2022/06/23 06:47:22;;;;;;;16.70;9.93;;;22.60;1.00;;;;;;5013888;28;20609;-72
2022/06/23 06:49:48;;;;;;;21.13;8.23;;;22.70;1.00;;;;;;5013155;28;20925;-72
2022/06/23 06:52:16;;;;;;;26.47;10.80;;;22.80;1.00;;;;;;5017293;28;20850;-80
2022/06/23 06:54:45;;;;;;;16.90;9.00;;;22.90;1.00;;;;;;5019760;28;20435;-80
2022/06/23 06:57:23;;;;;;;13.43;7.90;;;23.10;1.00;;;;;;5017564;28;20907;-81
2022/06/23 07:00:00;;;;;;;13.67;7.90;;;23.20;1.00;;;;;;5015631;28;20933;-82
2022/06/23 07:02:35;;;;;;;20.17;8.50;;;23.40;1.00;;;;;;5010025;28;20472;-82
2022/06/23 07:05:14;;;;;;;12.87;7.73;;;23.50;1.00;;;;;;5064711;28;20431;-82
2022/06/23 07:07:45;;;;;;;12.87;7.50;;;23.60;1.00;;;;;;5061312;28;20432;-82
2022/06/23 07:10:28;;;;;;;12.80;8.23;;;23.80;1.00;;;;;;5068461;28;20422;-76
2022/06/23 07:13:05;;;;;;;14.00;9.00;;;23.80;1.00;;;;;;5074002;28;20495;-82
2022/06/23 07:15:34;;;;;;;16.07;8.47;;;24.00;1.00;;;;;;5066904;28;20428;-83
2022/06/23 07:18:11;;;;;;;16.67;8.20;;;24.20;1.00;;;;;;5063221;28;20964;-83
2022/06/23 07:20:52;;;;;;;13.07;7.83;;;24.30;1.00;;;;;;5072911;28;20860;-83
2022/06/23 07:23:43;;;;;;;13.63;7.83;;;24.40;1.00;;;;;;5071370;28;20446;-83
2022/06/23 07:26:51;;;;;;;15.80;8.03;;;24.50;1.00;;;;;;5074219;28;20435;-83
2022/06/23 07:29:20;;;;;;;22.90;8.03;;;24.70;1.00;;;;;;5072765;28;20955;-83
2022/06/23 07:31:57;;;;;;;18.13;8.53;;;24.80;1.00;;;;;;5074798;28;20412;-83
2022/06/23 07:34:26;;;;;;;15.77;8.20;;;24.90;1.00;;;;;;5061466;28;20411;-83
2022/06/23 07:36:58;;;;;;;14.00;7.70;;;25.00;1.00;;;;;;5073946;28;20432;-83
2022/06/23 07:39:34;;;;;;;16.03;8.13;;;25.20;1.00;;;;;;5074082;28;20427;-83
2022/06/23 07:42:18;;;;;;;14.97;7.23;;;25.30;1.00;;;;;;5073786;28;20445;-83
2022/06/23 07:45:00;;;;;;;8.73;6.90;;;25.50;1.00;;;;;;5074098;28;20472;-80
2022/06/23 07:47:26;;;;;;;18.23;7.70;;;25.70;1.00;;;;;;5073350;28;20432;-80
2022/06/23 07:49:51;;;;;;;14.60;7.80;;;25.80;1.00;;;;;;5073597;28;20409;-79
2022/06/23 07:52:19;;;;;;;14.67;8.10;;;25.90;1.00;;;;;;5061318;28;20643;-79
2022/06/23 07:54:49;;;;;;;15.40;7.30;;;26.00;1.00;;;;;;5073495;28;20181;-79
2022/06/23 07:57:15;;;;;;;20.00;8.33;;;26.00;1.00;;;;;;5073345;28;20753;-79
2022/06/23 07:59:48;;;;;;;14.47;8.57;;;26.10;1.00;;;;;;5073555;28;20422;-80
2022/06/23 08:02:25;;;;;;;16.47;7.77;;;26.20;1.00;;;;;;5062480;28;20510;-80
2022/06/23 08:04:53;;;;;;;17.60;7.27;;;26.30;1.00;;;;;;5073454;28;20419;-80
2022/06/23 08:07:20;;;;;;;12.13;7.73;;;26.40;1.00;;;;;;5073280;28;20428;-80
2022/06/23 08:09:56;;;;;;;18.03;7.80;;;26.50;1.00;;;;;;5073285;28;20475;-79
2022/06/23 08:12:55;;;;;;;13.77;6.80;;;26.60;1.00;;;;;;5071683;28;20468;-79
2022/06/23 08:18:41;;;;;;;21.70;7.87;;;26.80;1.00;;;;;;5050915;28;20417;-83
2022/06/23 08:21:14;;;;;;;15.67;6.30;;;26.90;1.00;;;;;;5050903;28;20432;-83
2022/06/23 08:23:58;;;;;;;16.93;6.50;;;26.90;1.00;;;;;;5050740;28;20489;-83
2022/06/23 08:26:24;;;;;;;14.40;6.57;;;27.10;1.00;;;;;;5064254;28;20418;-83
2022/06/23 08:28:55;;;;;;;12.63;6.40;;;27.20;1.00;;;;;;5051036;28;20909;-83
2022/06/23 08:31:21;;;;;;;11.40;6.10;;;27.20;1.00;;;;;;5050855;28;20475;-79
2022/06/23 08:33:47;;;;;;;11.90;6.70;;;27.30;1.00;;;;;;5050708;28;20454;-78
2022/06/23 08:36:21;;;;;;;12.80;6.77;;;27.50;1.00;;;;;;5050899;28;20582;-79
2022/06/23 08:38:59;;;;;;;18.57;6.77;;;27.60;1.00;;;;;;5050636;28;20420;-79
2022/06/23 08:41:25;;;;;;;13.97;6.10;;;27.70;1.00;;;;;;5050687;28;20432;-79
2022/06/23 08:44:13;;;;;;;12.93;5.23;;;27.80;1.00;;;;;;5052296;28;20794;-79
2022/06/23 08:47:23;;;;;;;16.20;6.80;;;28.00;1.00;;;;;;5059374;28;20242;-84
2022/06/23 08:50:16;;;;;;;12.27;5.90;;;28.00;1.00;;;;;;5011048;28;20430;-84
2022/06/23 08:52:51;;;;;;;13.30;6.90;;;28.00;1.00;;;;;;5022609;28;20510;-84
2022/06/23 08:55:39;;;;;;;16.90;6.30;;;28.10;1.00;;;;;;5027505;28;21026;-83
2022/06/23 08:58:20;;;;;;;17.33;6.10;;;28.10;1.00;;;;;;5011158;28;20817;-84
2022/06/23 09:00:46;;;;;;;14.60;5.40;;;28.10;1.00;;;;;;5018704;28;20481;-84
2022/06/23 09:03:26;;;;;;;15.90;6.30;;;28.30;1.00;;;;;;5017515;28;20462;-84
2022/06/23 09:06:28;;;;;;;13.57;5.60;;;28.40;1.00;;;;;;5030416;28;20267;-83
2022/06/23 09:09:12;;;;;;;13.23;6.20;;;28.40;1.00;;;;;;5030741;28;20421;-84
2022/06/23 09:11:46;;;;;;;12.73;5.83;;;28.50;1.00;;;;;;5013810;28;20918;-83
2022/06/23 09:14:47;;;;;;;13.07;5.10;;;28.70;1.00;;;;;;5030266;28;20854;-84
2022/06/23 09:17:31;;;;;;;10.93;5.73;;;29.00;1.00;;;;;;5020658;28;20436;-83
2022/06/23 09:20:21;;;;;;;12.73;5.60;;;29.00;1.00;;;;;;5031237;28;20476;-84
2022/06/23 09:23:16;;;;;;;14.47;6.17;;;29.00;1.00;;;;;;5027643;28;20845;-84
2022/06/23 09:26:06;;;;;;;12.50;5.23;;;29.20;1.00;;;;;;5043010;28;20428;-84
2022/06/23 09:28:49;;;;;;;9.43;5.07;;;29.20;1.00;;;;;;5083145;28;20511;-84
2022/06/23 09:31:20;;;;;;;13.63;4.90;;;29.40;1.00;;;;;;5076745;28;20412;-79
2022/06/23 09:34:05;;;;;;;10.43;5.60;;;29.60;1.00;;;;;;5076377;28;20415;-79
2022/06/23 09:36:58;;;;;;;14.60;4.80;;;29.80;1.00;;;;;;5076179;28;20432;-79
2022/06/23 09:39:48;;;;;;;10.20;4.70;;;29.80;1.00;;;;;;5076280;28;20638;-79
2022/06/23 09:42:30;;;;;;;6.87;4.30;;;29.70;1.00;;;;;;5074870;28;20463;-79
2022/06/23 09:45:05;;;;;;;18.13;5.73;;;29.80;1.00;;;;;;5075888;28;20487;-79
2022/06/23 09:47:33;;;;;;;12.30;5.33;;;30.00;1.00;;;;;;5076665;28;20419;-85
2022/06/23 09:50:20;;;;;;;10.17;5.03;;;30.30;1.00;;;;;;5076234;28;20426;-84
2022/06/23 09:53:04;;;;;;;18.63;4.73;;;30.50;1.00;;;;;;5076157;28;20432;-85
2022/06/23 09:55:57;;;;;;;11.63;4.90;;;30.80;1.00;;;;;;5075671;28;20825;-85
2022/06/23 09:58:43;;;;;;;12.67;4.40;;;31.10;1.00;;;;;;5062583;28;20910;-85
2022/06/23 10:01:29;;;;;;;13.17;4.63;;;31.40;1.00;;;;;;5071153;28;20484;-85
2022/06/23 10:04:16;;;;;;;14.57;4.30;;;31.40;1.00;;;;;;5063688;28;20417;-85
2022/06/23 10:07:17;;;;;;;18.43;4.30;;;31.70;1.00;;;;;;5074454;28;20440;-84
2022/06/23 10:10:21;;;;;;;15.10;4.20;;;31.80;1.00;;;;;;5075851;28;20499;-85
2022/06/23 10:13:07;;;;;;;8.13;4.00;;;32.00;1.00;;;;;;5074490;28;20452;-85
2022/06/23 10:15:47;;;;;;;10.20;4.00;;;32.10;1.00;;;;;;5033604;28;20423;-85
2022/06/23 10:18:34;;;;;;;9.77;3.87;;;32.10;1.00;;;;;;5033890;28;20430;-85
2022/06/23 10:21:30;;;;;;;12.13;4.00;;;31.90;1.00;;;;;;5033294;28;20423;-85
2022/06/23 10:24:30;;;;;;;15.10;4.50;;;32.00;1.00;;;;;;5036594;28;20437;-85
2022/06/23 10:27:05;;;;;;;18.80;6.43;;;31.80;1.00;;;;;;5023525;28;20509;-84
2022/06/23 10:29:49;;;;;;;37.23;14.53;;;32.00;1.00;;;;;;5044116;28;20433;-84
2022/06/23 10:32:33;;;;;;;16.00;4.37;;;32.20;1.00;;;;;;5033259;28;20418;-78
2022/06/23 10:35:13;;;;;;;7.53;4.00;;;32.40;1.00;;;;;;5033101;28;20415;-78
2022/06/23 10:37:59;;;;;;;5.57;3.53;;;32.50;1.00;;;;;;5016328;28;20430;-70
2022/06/23 10:40:44;;;;;;;8.33;4.20;;;32.80;1.00;;;;;;5032953;28;20784;-70
2022/06/23 10:43:21;;;;;;;7.00;3.67;;;33.00;1.00;;;;;;5032909;28;20954;-70
2022/06/23 10:45:56;;;;;;;9.63;4.07;;;32.90;1.00;;;;;;5032647;28;20429;-70
2022/06/23 10:48:54;;;;;;;9.97;4.03;;;32.90;1.00;;;;;;5033227;28;20925;-70
2022/06/23 10:51:37;;;;;;;11.13;4.00;;;32.70;1.00;;;;;;5032421;28;20415;-70
2022/06/23 10:54:37;;;;;;;8.47;4.40;;;32.50;1.00;;;;;;5072970;28;20470;-70
2022/06/23 10:57:36;;;;;;;9.70;4.10;;;32.80;1.00;;;;;;5074501;28;20417;-70
2022/06/23 11:00:11;;;;;;;8.77;4.10;;;32.90;1.00;;;;;;5074731;28;20406;-70
2022/06/23 11:02:55;;;;;;;9.73;4.53;;;33.00;1.00;;;;;;5075049;28;20448;-75
2022/06/23 11:05:27;;;;;;;7.97;3.77;;;33.10;1.00;;;;;;5074643;28;20436;-75
2022/06/23 11:08:03;;;;;;;9.83;3.77;;;33.40;1.00;;;;;;5074527;28;20991;-75
2022/06/23 11:10:38;;;;;;;12.33;3.90;;;33.60;1.00;;;;;;5074590;28;20405;-75
2022/06/23 11:13:09;;;;;;;11.20;4.13;;;33.90;1.00;;;;;;5074737;28;20924;-76
2022/06/23 11:16:04;;;;;;;11.27;3.90;;;34.20;1.00;;;;;;5074535;28;20920;-76
2022/06/23 11:18:44;;;;;;;10.13;3.90;;;33.90;1.00;;;;;;5074753;28;21002;-70
2022/06/23 11:21:22;;;;;;;9.67;3.90;;;33.80;1.00;;;;;;5074132;28;20425;-70
2022/06/23 11:24:08;;;;;;;11.80;4.23;;;33.70;1.00;;;;;;5067282;28;20484;-70
2022/06/23 11:26:59;;;;;;;14.97;4.50;;;33.70;1.00;;;;;;5072967;28;20418;-70
2022/06/23 11:29:52;;;;;;;10.53;4.10;;;33.70;1.00;;;;;;5074386;28;20908;-70
2022/06/23 11:32:32;;;;;;;9.27;4.37;;;33.70;1.00;;;;;;5067981;28;20516;-70
2022/06/23 11:35:25;;;;;;;9.70;4.10;;;33.80;1.00;;;;;;5074031;28;20462;-70
2022/06/23 11:38:15;;;;;;;15.70;4.00;;;33.90;1.00;;;;;;5073902;28;20508;-70
2022/06/23 11:40:45;;;;;;;11.13;3.50;;;34.20;1.00;;;;;;5073958;28;20496;-70
2022/06/23 11:43:32;;;;;;;10.50;3.60;;;34.10;1.00;;;;;;5073048;28;20445;-70
2022/06/23 11:46:02;;;;;;;6.70;3.67;;;33.80;1.00;;;;;;5073749;28;20924;-70
2022/06/23 11:49:07;;;;;;;9.30;3.50;;;34.10;1.00;;;;;;5073994;28;20510;-76
2022/06/23 11:51:44;;;;;;;7.40;3.97;;;34.30;1.00;;;;;;5026050;28;20448;-76
2022/06/23 11:54:32;;;;;;;10.70;4.10;;;34.60;1.00;;;;;;5018264;28;20415;-76
2022/06/23 11:57:30;;;;;;;8.40;3.27;;;34.80;1.00;;;;;;5025801;28;20434;-77
2022/06/23 12:00:03;;;;;;;14.80;3.20;;;34.60;1.00;;;;;;4993111;28;20417;-77
2022/06/23 12:02:28;;;;;;;11.77;3.60;;;34.60;1.00;;;;;;5004677;28;20467;-76
2022/06/23 12:05:08;;;;;;;7.13;3.30;;;34.70;1.00;;;;;;4992070;28;20977;-76
2022/06/23 12:07:34;;;;;;;8.63;3.23;;;35.00;1.00;;;;;;4998302;28;20586;-76
2022/06/23 12:10:12;;;;;;;8.47;3.63;;;34.90;1.00;;;;;;5004822;28;20524;-76
2022/06/23 12:12:45;;;;;;;7.67;3.13;;;35.20;1.00;;;;;;5011454;28;20231;-76
2022/06/23 12:15:15;;;;;;;10.97;3.30;;;35.30;1.00;;;;;;5003706;28;20567;-76
2022/06/23 12:17:43;;;;;;;7.60;3.23;;;35.10;1.00;;;;;;4999115;28;20572;-70
2022/06/23 12:20:31;;;;;;;13.33;3.20;;;35.30;1.00;;;;;;5017383;28;20429;-70
2022/06/23 12:23:03;;;;;;;13.60;3.30;;;35.40;1.00;;;;;;4998539;28;20504;-70
2022/06/23 12:25:47;;;;;;;9.73;3.67;;;35.80;1.00;;;;;;5001761;28;20424;-70
2022/06/23 12:28:23;;;;;;;5.17;3.03;;;36.00;1.00;;;;;;5009407;28;20415;-70
2022/06/23 12:31:18;;;;;;;4.60;3.00;;;35.80;1.00;;;;;;5011167;28;20420;-69
2022/06/23 12:33:49;;;;;;;4.23;2.70;;;35.90;1.00;;;;;;5011494;28;20403;-76
2022/06/23 12:36:29;;;;;;;11.37;3.23;;;35.90;1.00;;;;;;5029329;28;20508;-76
2022/06/23 12:39:10;;;;;;;13.13;3.17;;;36.10;1.00;;;;;;5072354;28;20492;-76
2022/06/23 12:41:44;;;;;;;9.47;3.13;;;36.30;1.00;;;;;;5062301;28;20926;-76
2022/06/23 12:44:38;;;;;;;12.13;2.80;;;36.30;1.00;;;;;;5073257;28;20418;-76
2022/06/23 12:47:07;;;;;;;6.73;2.97;;;36.50;1.00;;;;;;5086578;28;20887;-76
2022/06/23 12:49:47;;;;;;;6.43;2.97;;;36.30;1.00;;;;;;5073286;28;20488;-76
2022/06/23 12:52:30;;;;;;;13.00;3.27;;;36.30;1.00;;;;;;5086330;28;20405;-76
2022/06/23 12:55:27;;;;;;;10.07;3.30;;;36.00;1.00;;;;;;5072413;28;20406;-77
2022/06/23 12:58:16;;;;;;;11.27;2.97;;;35.90;1.00;;;;;;5026855;28;20905;-76
2022/06/23 13:00:59;;;;;;;6.13;2.80;;;36.20;1.00;;;;;;5012078;28;20435;-76
2022/06/23 13:03:29;;;;;;;10.33;3.57;;;36.20;1.00;;;;;;5010934;28;20553;-76
2022/06/23 13:06:19;;;;;;;7.87;3.10;;;36.10;1.00;;;;;;5010747;28;20428;-76
2022/06/23 13:08:59;;;;;;;6.30;3.20;;;35.70;1.00;;;;;;5010609;28;20796;-76
2022/06/23 13:11:47;;;;;;;15.70;3.47;;;35.50;1.00;;;;;;5010483;28;20424;-76
2022/06/23 13:14:24;;;;;;;11.40;3.17;;;35.20;1.00;;;;;;5000750;28;20443;-76
2022/06/23 13:17:15;;;;;;;8.10;2.83;;;35.10;1.00;;;;;;5008701;28;20431;-76
2022/06/23 13:19:49;;;;;;;5.97;3.20;;;35.00;1.00;;;;;;5010719;28;20571;-76
2022/06/23 13:22:14;;;;;;;8.90;2.80;;;34.90;1.00;;;;;;5017834;28;20603;-82
2022/06/23 13:24:43;;;;;;;7.50;3.10;;;34.70;1.00;;;;;;5014200;28;20460;-83
2022/06/23 13:27:22;;;;;;;9.97;3.10;;;34.50;1.00;;;;;;5010140;28;20323;-78
2022/06/23 13:30:11;;;;;;;10.43;3.53;;;34.30;1.00;;;;;;5010304;28;20595;-75
2022/06/23 13:33:14;;;;;;;7.10;2.97;;;34.10;1.00;;;;;;5010618;28;20475;-70
2022/06/23 13:35:45;;;;;;;9.23;3.67;;;34.30;1.00;;;;;;5060478;28;20443;-70
2022/06/23 13:38:22;;;;;;;7.17;3.03;;;34.30;1.00;;;;;;5062140;28;20442;-70
2022/06/23 13:40:58;;;;;;;9.10;3.17;;;34.50;1.00;;;;;;5066410;28;20417;-70
2022/06/23 13:43:25;;;;;;;7.43;2.90;;;34.70;1.00;;;;;;5072190;28;20464;-70
2022/06/23 13:46:05;;;;;;;15.07;2.97;;;34.90;1.00;;;;;;5072831;28;20421;-70
2022/06/23 13:49:09;;;;;;;14.80;3.17;;;35.00;1.00;;;;;;5073232;28;20433;-76
2022/06/23 13:51:44;;;;;;;6.63;3.07;;;35.10;1.00;;;;;;5052823;28;20385;-76
2022/06/23 13:54:40;;;;;;;7.73;2.70;;;35.10;1.00;;;;;;5066212;28;20406;-75